createdAt,value
2018-09-23T00:01:51.017Z,101035.70
2018-09-23T00:04:19.397Z,101032.21
2018-09-23T00:06:47.766Z,101024.29
2018-09-23T00:09:16.169Z,101021.32
2018-09-23T00:11:44.533Z,101021.13
2018-09-23T00:14:12.905Z,101019.97
2018-09-23T00:16:41.272Z,101027.90
2018-09-23T00:19:09.625Z,101013.88
2018-09-23T00:21:38.046Z,101011.23
2018-09-23T00:24:06.375Z,101012.55
2018-09-23T00:26:34.781Z,101010.23
2018-09-23T00:29:03.257Z,101003.96
2018-09-23T00:31:31.671Z,100999.36
2018-09-23T00:34:00.014Z,100990.45
2018-09-23T00:36:28.408Z,100982.88
2018-09-23T00:38:56.788Z,100986.67
2018-09-23T00:41:25.189Z,100990.14
2018-09-23T00:43:53.552Z,100990.47
2018-09-23T00:46:23.204Z,101002.22
2018-09-23T00:48:51.609Z,101004.53
2018-09-23T00:51:19.985Z,100986.37
2018-09-23T00:53:49.311Z,100981.91
2018-09-23T00:56:17.651Z,100972.99
2018-09-23T00:58:46.002Z,100979.91
2018-09-23T01:01:14.338Z,100985.87
2018-09-23T01:03:42.683Z,100982.73
2018-09-23T01:06:11.045Z,100975.12
2018-09-23T01:08:39.417Z,100968.69
2018-09-23T01:11:07.785Z,100969.51
2018-09-23T01:13:36.212Z,100964.91
2018-09-23T01:16:04.581Z,100951.03
2018-09-23T01:18:33.077Z,100943.11
2018-09-23T01:21:01.487Z,100942.61
2018-09-23T01:23:29.853Z,100944.91
2018-09-23T01:25:58.188Z,100947.23
2018-09-23T01:28:26.577Z,100945.70
2018-09-23T01:30:54.926Z,100946.52
2018-09-23T01:33:23.314Z,100939.88
2018-09-23T01:35:51.663Z,100937.57
2018-09-23T01:38:19.987Z,100933.61
2018-09-23T01:40:48.467Z,100929.13
2018-09-23T01:43:16.814Z,100924.31
2018-09-23T01:45:45.193Z,100920.72
2018-09-23T01:48:13.618Z,100914.95
2018-09-23T01:50:42.219Z,100916.30
2018-09-23T01:53:10.592Z,100910.70
2018-09-23T01:55:39.380Z,100906.73
2018-09-23T01:58:07.940Z,100892.32
2018-09-23T02:00:36.308Z,100881.74
2018-09-23T02:03:04.695Z,100875.31
2018-09-23T02:05:33.288Z,100870.87
2018-09-23T02:08:02.809Z,100863.27
2018-09-23T02:10:31.189Z,100865.90
2018-09-23T02:12:59.666Z,100863.57
2018-09-23T02:15:28.053Z,100863.86
2018-09-23T02:17:56.439Z,100857.38
2018-09-23T02:20:24.874Z,100858.05
2018-09-23T02:22:53.315Z,100860.02
2018-09-23T02:25:21.677Z,100858.75
2018-09-23T02:27:50.056Z,100847.39
2018-09-23T02:30:18.414Z,100843.26
2018-09-23T02:32:46.795Z,100840.94
2018-09-23T02:35:15.160Z,100841.13
2018-09-23T02:37:43.788Z,100834.53
2018-09-23T02:40:12.200Z,100826.92
2018-09-23T02:42:40.521Z,100831.70
2018-09-23T02:45:08.878Z,100823.11
2018-09-23T02:47:37.375Z,100824.06
2018-09-23T02:50:05.790Z,100819.77
2018-09-23T02:52:34.379Z,100815.26
2018-09-23T02:55:02.758Z,100806.19
2018-09-23T02:57:31.135Z,100804.55
2018-09-23T02:59:59.566Z,100805.70
2018-09-23T03:02:27.958Z,100804.06
2018-09-23T03:04:56.321Z,100813.30
2018-09-23T03:07:24.675Z,100806.02
2018-09-23T03:09:53.029Z,100801.92
2018-09-23T03:12:22.989Z,100787.73
2018-09-23T03:14:51.355Z,100782.81
2018-09-23T03:17:19.874Z,100795.45
2018-09-23T03:19:48.253Z,100791.66
2018-09-23T03:22:16.752Z,100782.77
2018-09-23T03:24:45.139Z,100771.38
2018-09-23T03:27:13.499Z,100767.92
2018-09-23T03:29:41.867Z,100764.14
2018-09-23T03:32:10.298Z,100764.45
2018-09-23T03:34:38.681Z,100767.42
2018-09-23T03:37:07.098Z,100753.53
2018-09-23T03:39:35.487Z,100757.11
2018-09-23T03:42:03.916Z,100756.73
2018-09-23T03:44:32.295Z,100759.88
2018-09-23T03:47:00.674Z,100765.03
2018-09-23T03:49:29.068Z,100744.77
2018-09-23T03:51:57.407Z,100744.66
2018-09-23T03:54:26.954Z,100738.87
2018-09-23T03:56:55.317Z,100732.78
2018-09-23T03:59:23.727Z,100730.75
2018-09-23T04:01:52.039Z,100724.15
2018-09-23T04:04:20.426Z,100709.45
2018-09-23T04:06:48.779Z,100702.02
2018-09-23T04:09:17.191Z,100683.89
2018-09-23T04:11:45.569Z,100678.51
2018-09-23T04:14:15.112Z,100681.32
2018-09-23T04:16:43.492Z,100666.31
2018-09-23T04:19:11.866Z,100666.09
2018-09-23T04:21:40.373Z,100673.50
2018-09-23T04:24:08.722Z,100682.55
2018-09-23T04:26:37.100Z,100666.90
2018-09-23T04:29:05.441Z,100662.62
2018-09-23T04:31:33.835Z,100651.38
2018-09-23T04:34:02.203Z,100638.83
2018-09-23T04:36:30.590Z,100645.42
2018-09-23T04:38:58.964Z,100642.77
2018-09-23T04:41:27.445Z,100648.87
2018-09-23T04:43:55.792Z,100649.06
2018-09-23T04:46:24.163Z,100636.20
2018-09-23T04:48:52.463Z,100635.23
2018-09-23T04:51:20.829Z,100650.57
2018-09-23T04:53:49.167Z,100650.37
2018-09-23T04:56:17.595Z,100646.75
2018-09-23T04:58:45.965Z,100646.75
2018-09-23T05:01:14.351Z,100647.80
2018-09-23T05:03:42.731Z,100644.98
2018-09-23T05:06:11.109Z,100633.47
2018-09-23T05:08:39.463Z,100636.46
2018-09-23T05:11:07.815Z,100645.88
2018-09-23T05:13:36.245Z,100646.84
2018-09-23T05:16:04.639Z,100636.47
2018-09-23T05:18:33.034Z,100626.59
2018-09-23T05:21:01.580Z,100619.17
2018-09-23T05:23:29.947Z,100629.73
2018-09-23T05:25:58.307Z,100625.77
2018-09-23T05:28:26.654Z,100611.25
2018-09-23T05:30:55.099Z,100614.36
2018-09-23T05:33:23.411Z,100624.77
2018-09-23T05:35:51.760Z,100629.87
2018-09-23T05:38:20.124Z,100632.69
2018-09-23T05:40:48.501Z,100633.34
2018-09-23T05:43:18.088Z,100629.23
2018-09-23T05:45:46.438Z,100609.58
2018-09-23T05:48:14.849Z,100600.52
2018-09-23T05:50:43.339Z,100598.52
2018-09-23T05:53:11.832Z,100600.34
2018-09-23T05:55:40.165Z,100608.11
2018-09-23T05:58:08.757Z,100622.77
2018-09-23T06:00:39.472Z,100608.61
2018-09-23T06:03:07.918Z,100595.06
2018-09-23T06:05:36.335Z,100597.30
2018-09-23T06:08:04.704Z,100587.88
2018-09-23T06:10:33.116Z,100591.83
2018-09-23T06:13:01.612Z,100581.77
2018-09-23T06:15:30.017Z,100585.38
2018-09-23T06:17:58.420Z,100615.72
2018-09-23T06:20:26.784Z,100611.30
2018-09-23T06:22:55.173Z,100603.08
2018-09-23T06:25:23.724Z,100601.58
2018-09-23T06:27:51.956Z,100584.75
2018-09-23T06:30:20.353Z,100582.61
2018-09-23T06:32:48.735Z,100576.69
2018-09-23T06:35:17.111Z,100576.83
2018-09-23T06:37:45.462Z,100573.23
2018-09-23T06:40:13.966Z,100572.06
2018-09-23T06:42:42.321Z,100567.45
2018-09-23T06:45:10.678Z,100566.45
2018-09-23T06:47:39.056Z,100571.41
2018-09-23T06:50:07.414Z,100568.45
2018-09-23T06:52:35.839Z,100565.14
2018-09-23T06:55:04.211Z,100550.62
2018-09-23T06:57:32.747Z,100550.80
2018-09-23T07:00:01.230Z,100549.81
2018-09-23T07:02:29.603Z,100558.40
2018-09-23T07:04:58.024Z,100566.96
2018-09-23T07:07:26.400Z,100572.45
2018-09-23T07:09:54.760Z,100578.41
2018-09-23T07:12:23.188Z,100570.66
2018-09-23T07:14:51.581Z,100571.66
2018-09-23T07:17:19.951Z,100567.35
2018-09-23T07:19:48.315Z,100569.02
2018-09-23T07:22:16.693Z,100572.80
2018-09-23T07:24:45.091Z,100570.69
2018-09-23T07:27:13.461Z,100559.47
2018-09-23T07:29:41.881Z,100554.02
2018-09-23T07:32:10.268Z,100554.33
2018-09-23T07:34:41.634Z,100548.41
2018-09-23T07:37:10.078Z,100541.48
2018-09-23T07:39:38.584Z,100539.02
2018-09-23T07:42:07.303Z,100548.58
2018-09-23T07:44:35.661Z,100539.17
2018-09-23T07:47:04.056Z,100540.31
2018-09-23T07:49:32.451Z,100547.07
2018-09-23T07:52:00.795Z,100546.25
2018-09-23T07:54:29.351Z,100538.98
2018-09-23T07:56:57.716Z,100525.30
2018-09-23T07:59:26.114Z,100512.27
2018-09-23T08:01:54.589Z,100503.02
2018-09-23T08:04:22.970Z,100499.07
2018-09-23T08:06:51.366Z,100496.59
2018-09-23T08:09:19.750Z,100488.67
2018-09-23T08:11:48.137Z,100487.98
2018-09-23T08:14:16.853Z,100479.58
2018-09-23T08:16:44.988Z,100472.97
2018-09-23T08:19:13.431Z,100450.87
2018-09-23T08:21:41.798Z,100451.19
2018-09-23T08:24:10.155Z,100464.37
2018-09-23T08:26:38.550Z,100473.16
2018-09-23T08:29:06.907Z,100480.23
2018-09-23T08:31:35.302Z,100488.47
2018-09-23T08:34:03.685Z,100479.89
2018-09-23T08:36:32.090Z,100468.36
2018-09-23T08:39:00.472Z,100460.44
2018-09-23T08:41:28.873Z,100460.28
2018-09-23T08:43:57.237Z,100459.95
2018-09-23T08:46:25.921Z,100455.64
2018-09-23T08:48:54.303Z,100464.88
2018-09-23T08:51:22.713Z,100458.11
2018-09-23T08:53:51.087Z,100468.51
2018-09-23T08:56:19.429Z,100473.92
2018-09-23T08:58:47.823Z,100476.56
2018-09-23T09:01:16.184Z,100479.71
2018-09-23T09:03:44.578Z,100473.59
2018-09-23T09:06:12.942Z,100465.52
2018-09-23T09:08:41.313Z,100461.55
2018-09-23T09:11:09.804Z,100450.15
2018-09-23T09:13:38.439Z,100429.34
2018-09-23T09:16:06.840Z,100410.70
2018-09-23T09:18:35.280Z,100412.16
2018-09-23T09:21:05.089Z,100406.03
2018-09-23T09:23:33.429Z,100396.13
2018-09-23T09:26:01.805Z,100403.57
2018-09-23T09:28:30.202Z,100407.06
2018-09-23T09:30:58.588Z,100406.06
2018-09-23T09:33:26.971Z,100402.75
2018-09-23T09:35:55.333Z,100397.47
2018-09-23T09:38:23.688Z,100393.83
2018-09-23T09:40:52.055Z,100382.92
2018-09-23T09:43:20.650Z,100363.61
2018-09-23T09:45:49.018Z,100361.97
2018-09-23T09:48:17.363Z,100367.73
2018-09-23T09:50:45.715Z,100366.25
2018-09-23T09:53:14.074Z,100372.20
2018-09-23T09:55:42.471Z,100383.42
2018-09-23T09:58:10.877Z,100364.13
2018-09-23T10:00:39.267Z,100350.27
2018-09-23T10:03:07.695Z,100339.22
2018-09-23T10:05:36.425Z,100336.58
2018-09-23T10:08:04.806Z,100320.09
2018-09-23T10:10:33.179Z,100287.79
2018-09-23T10:13:01.627Z,100278.52
2018-09-23T10:15:30.015Z,100294.05
2018-09-23T10:17:58.371Z,100289.93
2018-09-23T10:20:26.940Z,100281.98
2018-09-23T10:22:55.495Z,100272.42
2018-09-23T10:25:23.719Z,100279.05
2018-09-23T10:27:52.181Z,100289.95
2018-09-23T10:30:20.603Z,100295.09
2018-09-23T10:32:48.991Z,100297.25
2018-09-23T10:35:18.237Z,100288.03
2018-09-23T10:37:46.634Z,100271.07
2018-09-23T10:40:14.957Z,100270.95
2018-09-23T10:42:43.353Z,100276.06
2018-09-23T10:45:12.905Z,100284.33
2018-09-23T10:47:41.249Z,100279.86
2018-09-23T10:50:09.626Z,100297.02
2018-09-23T10:52:38.081Z,100320.92
2018-09-23T10:55:06.435Z,100350.28
2018-09-23T10:57:34.973Z,100331.99
2018-09-23T11:00:03.422Z,100313.84
2018-09-23T11:02:32.245Z,100295.86
2018-09-23T11:05:00.626Z,100286.48
2018-09-23T11:07:29.035Z,100295.70
2018-09-23T11:09:57.365Z,100290.43
2018-09-23T11:12:25.729Z,100305.10
2018-09-23T11:14:54.149Z,100296.69
2018-09-23T11:17:22.535Z,100300.64
2018-09-23T11:19:50.931Z,100304.28
2018-09-23T11:22:19.336Z,100300.84
2018-09-23T11:24:47.800Z,100300.17
2018-09-23T11:27:16.181Z,100290.79
2018-09-23T11:29:44.531Z,100287.48
2018-09-23T11:32:12.855Z,100274.32
2018-09-23T11:34:41.205Z,100256.69
2018-09-23T11:37:09.740Z,100222.39
2018-09-23T11:39:38.116Z,100178.72
2018-09-23T11:42:06.484Z,100137.48
2018-09-23T11:44:34.941Z,100132.31
2018-09-23T11:47:03.284Z,100149.28
2018-09-23T11:49:31.665Z,100170.70
2018-09-23T11:52:00.101Z,100164.61
2018-09-23T11:54:29.095Z,100169.88
2018-09-23T11:56:57.509Z,100185.41
2018-09-23T11:59:25.876Z,100197.97
2018-09-23T12:01:55.966Z,100159.59
2018-09-23T12:04:24.384Z,100125.01
2018-09-23T12:06:52.675Z,100129.80
2018-09-23T12:09:21.231Z,100123.23
2018-09-23T12:11:49.601Z,100130.65
2018-09-23T12:14:17.980Z,100148.62
2018-09-23T12:16:46.330Z,100165.95
2018-09-23T12:19:14.730Z,100181.27
2018-09-23T12:21:43.099Z,100182.94
2018-09-23T12:24:11.501Z,100182.94
2018-09-23T12:26:39.872Z,100179.47
2018-09-23T12:29:08.251Z,100187.73
2018-09-23T12:31:36.587Z,100183.78
2018-09-23T12:34:05.021Z,100191.69
2018-09-23T12:36:33.389Z,100188.22
2018-09-23T12:39:02.034Z,100224.75
2018-09-23T12:41:30.359Z,100263.58
2018-09-23T12:43:58.744Z,100287.78
2018-09-23T12:46:27.110Z,100310.02
2018-09-23T12:48:55.537Z,100330.77
2018-09-23T12:51:23.917Z,100323.19
2018-09-23T12:53:52.478Z,100346.72
2018-09-23T12:56:20.851Z,100347.05
2018-09-23T12:58:49.204Z,100298.81
2018-09-23T13:01:17.577Z,100249.91
2018-09-23T13:03:45.896Z,100225.89
2018-09-23T13:06:14.304Z,100217.49
2018-09-23T13:08:42.661Z,100200.05
2018-09-23T13:11:11.130Z,100198.73
2018-09-23T13:13:39.471Z,100228.03
2018-09-23T13:16:07.831Z,100226.86
2018-09-23T13:18:36.164Z,100259.62
2018-09-23T13:21:04.684Z,100270.16
2018-09-23T13:23:33.032Z,100247.42
2018-09-23T13:26:01.389Z,100258.45
2018-09-23T13:28:29.790Z,100254.36
2018-09-23T13:30:58.171Z,100258.13
2018-09-23T13:33:26.549Z,100263.72
2018-09-23T13:35:54.909Z,100277.05
2018-09-23T13:38:23.336Z,100242.83
2018-09-23T13:40:51.699Z,100217.00
2018-09-23T13:43:20.101Z,100203.02
2018-09-23T13:45:48.464Z,100236.25
2018-09-23T13:48:16.879Z,100262.58
2018-09-23T13:50:45.233Z,100246.64
2018-09-23T13:53:13.630Z,100251.73
2018-09-23T13:55:41.987Z,100247.60
2018-09-23T13:58:10.401Z,100268.84
2018-09-23T14:00:39.173Z,100242.33
2018-09-23T14:03:07.613Z,100231.13
2018-09-23T14:05:36.007Z,100238.70
2018-09-23T14:08:04.381Z,100266.38
2018-09-23T14:10:32.774Z,100275.75
2018-09-23T14:13:01.143Z,100269.30
2018-09-23T14:15:29.483Z,100320.50
2018-09-23T14:17:57.844Z,100340.56
2018-09-23T14:20:26.241Z,100365.20
2018-09-23T14:22:54.617Z,100346.14
2018-09-23T14:25:22.968Z,100352.72
2018-09-23T14:27:51.336Z,100360.62
2018-09-23T14:30:19.727Z,100378.42
2018-09-23T14:32:48.433Z,100374.48
2018-09-23T14:35:16.788Z,100349.28
2018-09-23T14:37:45.156Z,100367.89
2018-09-23T14:40:13.478Z,100363.77
2018-09-23T14:42:41.891Z,100383.51
2018-09-23T14:45:10.267Z,100371.52
2018-09-23T14:47:38.625Z,100366.39
2018-09-23T14:50:07.555Z,100381.20
2018-09-23T14:52:35.923Z,100392.03
2018-09-23T14:55:04.377Z,100412.44
2018-09-23T14:57:32.691Z,100408.79
2018-09-23T15:00:03.204Z,100409.09
2018-09-23T15:02:29.510Z,100411.75
2018-09-23T15:04:57.947Z,100407.98
2018-09-23T15:07:26.268Z,100459.27
2018-09-23T15:09:54.804Z,100489.58
2018-09-23T15:12:23.174Z,100480.67
2018-09-23T15:14:51.536Z,100446.80
2018-09-23T15:17:20.266Z,100454.63
2018-09-23T15:19:48.601Z,100456.61
2018-09-23T15:22:18.150Z,100459.24
2018-09-23T15:24:46.470Z,100472.84
2018-09-23T15:27:14.824Z,100454.05
2018-09-23T15:29:43.196Z,100450.84
2018-09-23T15:32:11.558Z,100472.40
2018-09-23T15:34:40.646Z,100482.62
2018-09-23T15:37:09.826Z,100493.64
2018-09-23T15:39:39.081Z,100502.05
2018-09-23T15:42:07.454Z,100504.19
2018-09-23T15:44:35.784Z,100491.89
2018-09-23T15:47:04.174Z,100493.86
2018-09-23T15:49:32.717Z,100498.81
2018-09-23T15:52:01.149Z,100518.36
2018-09-23T15:54:29.528Z,100539.90
2018-09-23T15:56:57.871Z,100550.22
2018-09-23T15:59:26.391Z,100545.27
2018-09-23T16:01:54.771Z,100553.52
2018-09-23T16:04:23.140Z,100558.68
2018-09-23T16:06:51.725Z,100569.33
2018-09-23T16:09:20.101Z,100578.43
2018-09-23T16:11:48.415Z,100593.97
2018-09-23T16:14:16.810Z,100603.33
2018-09-23T16:16:45.203Z,100610.77
2018-09-23T16:19:13.524Z,100621.29
2018-09-23T16:21:44.089Z,100640.92
2018-09-23T16:24:12.487Z,100646.14
2018-09-23T16:26:40.788Z,100659.38
2018-09-23T16:29:09.136Z,100666.39
2018-09-23T16:31:37.460Z,100675.59
2018-09-23T16:34:05.776Z,100687.60
2018-09-23T16:36:34.105Z,100692.24
2018-09-23T16:39:02.481Z,100694.95
2018-09-23T16:41:30.838Z,100697.73
2018-09-23T16:43:59.217Z,100700.91
2018-09-23T16:46:27.539Z,100708.02
2018-09-23T16:48:55.909Z,100714.87
2018-09-23T16:51:24.236Z,100720.09
2018-09-23T16:53:52.545Z,100726.70
2018-09-23T16:56:20.953Z,100736.01
2018-09-23T16:58:49.472Z,100741.97
2018-09-23T17:01:17.830Z,100750.68
2018-09-23T17:03:46.191Z,100764.03
2018-09-23T17:06:14.545Z,100767.49
2018-09-23T17:08:42.943Z,100783.97
2018-09-23T17:11:11.331Z,100791.98
2018-09-23T17:13:39.668Z,100801.28
2018-09-23T17:16:08.041Z,100809.70
2018-09-23T17:18:36.376Z,100816.95
2018-09-23T17:21:04.743Z,100826.36
2018-09-23T17:23:33.189Z,100836.73
2018-09-23T17:26:01.543Z,100841.53
2018-09-23T17:28:30.849Z,100846.30
2018-09-23T17:30:59.296Z,100846.97
2018-09-23T17:33:27.681Z,100861.80
2018-09-23T17:35:56.028Z,100865.88
2018-09-23T17:38:24.388Z,100873.93
2018-09-23T17:40:52.802Z,100884.30
2018-09-23T17:43:21.185Z,100893.38
2018-09-23T17:45:49.508Z,100897.33
2018-09-23T17:48:17.836Z,100912.83
2018-09-23T17:50:46.207Z,100915.30
2018-09-23T17:53:14.572Z,100933.45
2018-09-23T17:55:43.043Z,100943.20
2018-09-23T17:58:11.409Z,100954.43
2018-09-23T18:00:44.313Z,100963.15
2018-09-23T18:03:14.046Z,100984.05
2018-09-23T18:05:42.613Z,100983.77
2018-09-23T18:08:10.997Z,100992.98
2018-09-23T18:10:39.452Z,101001.58
2018-09-23T18:13:07.949Z,101007.79
2018-09-23T18:15:36.425Z,101012.50
2018-09-23T18:18:04.901Z,101015.84
2018-09-23T18:20:33.334Z,101027.07
2018-09-23T18:23:01.953Z,101030.71
2018-09-23T18:25:30.312Z,101034.05
2018-09-23T18:27:58.659Z,101045.73
2018-09-23T18:30:27.073Z,101047.75
2018-09-23T18:32:55.423Z,101054.61
2018-09-23T18:35:23.782Z,101059.20
2018-09-23T18:37:52.164Z,101071.66
2018-09-23T18:40:20.728Z,101077.41
2018-09-23T18:42:49.189Z,101090.02
2018-09-23T18:45:17.554Z,101100.88
2018-09-23T18:47:45.931Z,101104.83
2018-09-23T18:50:14.286Z,101113.33
2018-09-23T18:52:42.703Z,101131.75
2018-09-23T18:55:16.400Z,101138.83
2018-09-23T18:57:44.798Z,101148.30
2018-09-23T19:00:13.256Z,101151.20
2018-09-23T19:02:41.590Z,101147.75
2018-09-23T19:05:09.994Z,101165.22
2018-09-23T19:07:38.360Z,101165.56
2018-09-23T19:10:06.774Z,101174.98
2018-09-23T19:12:35.121Z,101179.62
2018-09-23T19:15:03.472Z,101186.41
2018-09-23T19:17:31.860Z,101196.95
2018-09-23T19:20:05.588Z,101201.87
2018-09-23T19:22:39.367Z,101217.66
2018-09-23T19:25:07.725Z,101221.88
2018-09-23T19:27:36.104Z,101229.42
2018-09-23T19:30:04.563Z,101230.26
2018-09-23T19:32:32.994Z,101242.92
2018-09-23T19:35:01.382Z,101251.80
2018-09-23T19:37:29.752Z,101264.09
2018-09-23T19:39:58.071Z,101277.97
2018-09-23T19:42:26.466Z,101277.82
2018-09-23T19:44:55.093Z,101281.77
2018-09-23T19:47:23.681Z,101295.41
2018-09-23T19:49:52.110Z,101298.53
2018-09-23T19:52:20.764Z,101305.64
2018-09-23T19:54:49.119Z,101315.08
2018-09-23T19:57:17.520Z,101326.43
2018-09-23T19:59:45.856Z,101338.02
2018-09-23T20:02:14.206Z,101334.89
2018-09-23T20:04:42.596Z,101343.02
2018-09-23T20:07:10.926Z,101344.48
2018-09-23T20:09:39.319Z,101355.12
2018-09-23T20:12:07.697Z,101352.37
2018-09-23T20:14:36.093Z,101351.52
2018-09-23T20:17:04.484Z,101353.80
2018-09-23T20:19:32.821Z,101351.52
2018-09-23T20:22:01.241Z,101364.81
2018-09-23T20:24:29.627Z,101366.96
2018-09-23T20:26:58.009Z,101369.48
2018-09-23T20:29:26.446Z,101382.50
2018-09-23T20:31:54.818Z,101390.05
2018-09-23T20:34:23.194Z,101398.77
2018-09-23T20:36:51.567Z,101402.75
2018-09-23T20:39:19.928Z,101419.52
2018-09-23T20:41:48.305Z,101423.95
2018-09-23T20:44:16.673Z,101431.95
2018-09-23T20:46:45.090Z,101445.11
2018-09-23T20:49:13.627Z,101442.39
2018-09-23T20:51:43.119Z,101444.10
2018-09-23T20:54:11.602Z,101451.16
2018-09-23T20:56:40.130Z,101455.94
2018-09-23T20:59:08.881Z,101455.11
2018-09-23T21:01:37.464Z,101448.64
2018-09-23T21:04:06.118Z,101456.42
2018-09-23T21:06:34.474Z,101468.72
2018-09-23T21:09:02.955Z,101476.74
2018-09-23T21:11:31.422Z,101475.91
2018-09-23T21:13:59.751Z,101482.95
2018-09-23T21:16:28.113Z,101491.47
2018-09-23T21:18:56.465Z,101494.09
2018-09-23T21:21:24.859Z,101494.34
2018-09-23T21:23:53.193Z,101503.32
2018-09-23T21:26:21.563Z,101502.59
2018-09-23T21:28:49.973Z,101507.28
2018-09-23T21:31:18.307Z,101519.50
2018-09-23T21:33:46.703Z,101523.94
2018-09-23T21:36:15.036Z,101531.39
2018-09-23T21:38:43.424Z,101546.45
2018-09-23T21:41:11.794Z,101545.86
2018-09-23T21:43:40.150Z,101549.70
2018-09-23T21:46:08.537Z,101560.94
2018-09-23T21:48:36.906Z,101563.19
2018-09-23T21:51:05.310Z,101565.85
2018-09-23T21:53:33.683Z,101569.69
2018-09-23T21:56:02.021Z,101566.81
2018-09-23T21:58:30.443Z,101573.98
2018-09-23T22:00:58.746Z,101574.22
2018-09-23T22:03:27.124Z,101577.56
2018-09-23T22:05:55.466Z,101588.32
2018-09-23T22:08:23.876Z,101592.05
2018-09-23T22:10:52.249Z,101601.11
2018-09-23T22:13:20.620Z,101609.95
2018-09-23T22:15:48.992Z,101617.84
2018-09-23T22:18:17.380Z,101622.84
2018-09-23T22:20:45.742Z,101621.91
2018-09-23T22:23:14.097Z,101626.34
2018-09-23T22:25:42.459Z,101629.66
2018-09-23T22:28:10.833Z,101641.73
2018-09-23T22:30:40.104Z,101637.69
2018-09-23T22:33:08.418Z,101649.61
2018-09-23T22:35:36.780Z,101651.64
2018-09-23T22:38:05.150Z,101651.39
2018-09-23T22:40:33.505Z,101661.68
2018-09-23T22:43:01.875Z,101663.23
2018-09-23T22:45:30.229Z,101671.59
2018-09-23T22:47:59.474Z,101676.47
2018-09-23T22:50:27.840Z,101680.41
2018-09-23T22:52:56.201Z,101679.09
2018-09-23T22:55:24.547Z,101689.00
2018-09-23T22:57:52.923Z,101693.55
2018-09-23T23:00:21.315Z,101699.25
2018-09-23T23:02:49.639Z,101707.14
2018-09-23T23:05:18.410Z,101705.61
2018-09-23T23:07:46.725Z,101713.00
2018-09-23T23:10:15.141Z,101713.48
2018-09-23T23:12:43.489Z,101717.05
2018-09-23T23:15:11.869Z,101719.45
2018-09-23T23:17:40.185Z,101721.69
2018-09-23T23:20:08.523Z,101722.52
2018-09-23T23:22:37.530Z,101730.18
2018-09-23T23:25:06.008Z,101730.66
2018-09-23T23:27:34.351Z,101738.64
2018-09-23T23:30:02.696Z,101737.80
2018-09-23T23:32:32.250Z,101753.70
2018-09-23T23:35:00.631Z,101763.69
2018-09-23T23:37:28.985Z,101761.31
2018-09-23T23:39:57.324Z,101766.66
2018-09-23T23:42:25.649Z,101778.48
2018-09-23T23:44:53.987Z,101780.28
2018-09-23T23:47:22.357Z,101786.84
2018-09-23T23:49:50.693Z,101791.14
2018-09-23T23:52:19.032Z,101805.97
2018-09-23T23:54:47.797Z,101805.02
2018-09-23T23:57:16.161Z,101813.37
2018-09-23T23:59:44.659Z,101815.74
